createdAt,value
2024-04-16T00:02:55.967Z,99343.06
2024-04-16T00:05:58.434Z,99336.97
2024-04-16T00:09:00.956Z,99339.00
2024-04-16T00:12:03.492Z,99311.44
2024-04-16T00:15:36.080Z,99322.16
2024-04-16T00:18:38.574Z,99312.69
2024-04-16T00:21:41.060Z,99317.72
2024-04-16T00:24:43.535Z,99320.38
2024-04-16T00:27:46.012Z,99303.34
2024-04-16T00:30:48.464Z,99288.50
2024-04-16T00:33:50.988Z,99301.13
2024-04-16T00:36:53.522Z,99296.16
2024-04-16T00:39:55.961Z,99286.50
2024-04-16T00:42:58.471Z,99268.38
2024-04-16T00:46:01.274Z,99270.16
2024-04-16T00:49:04.049Z,99263.59
2024-04-16T00:52:07.561Z,99267.22
2024-04-16T00:55:10.070Z,99272.03
2024-04-16T00:58:12.622Z,99288.75
2024-04-16T01:01:15.358Z,99268.31
2024-04-16T01:04:17.937Z,99270.06
2024-04-16T01:07:20.467Z,99279.31
2024-04-16T01:10:22.950Z,99259.31
2024-04-16T01:13:25.466Z,99271.97
2024-04-16T01:16:27.937Z,99285.75
2024-04-16T01:19:30.526Z,99273.22
2024-04-16T01:22:33.688Z,99274.88
2024-04-16T01:25:36.902Z,99269.66
2024-04-16T01:28:39.488Z,99275.59
2024-04-16T01:31:42.038Z,99263.59
2024-04-16T01:34:44.525Z,99262.78
2024-04-16T01:37:46.987Z,99265.97
2024-04-16T01:40:49.439Z,99261.66
2024-04-16T01:43:51.875Z,99240.88
2024-04-16T01:46:54.313Z,99253.06
2024-04-16T01:49:56.765Z,99243.88
2024-04-16T01:52:59.233Z,99230.13
2024-04-16T01:56:01.703Z,99238.25
2024-04-16T01:59:04.212Z,99239.31
2024-04-16T02:02:08.644Z,99243.78
2024-04-16T02:05:11.142Z,99233.13
2024-04-16T02:08:13.649Z,99223.09
2024-04-16T02:11:16.175Z,99219.94
2024-04-16T02:14:18.625Z,99218.09
2024-04-16T02:17:22.998Z,99224.91
2024-04-16T02:20:25.598Z,99216.84
2024-04-16T02:23:28.055Z,99211.31
2024-04-16T02:26:30.497Z,99207.13
2024-04-16T02:29:32.946Z,99205.31
2024-04-16T02:32:35.501Z,99204.84
2024-04-16T02:35:38.000Z,99193.53
2024-04-16T02:38:40.451Z,99193.84
2024-04-16T02:41:42.908Z,99193.31
2024-04-16T02:44:45.343Z,99195.41
2024-04-16T02:47:47.911Z,99181.03
2024-04-16T02:50:53.710Z,99190.44
2024-04-16T02:53:56.166Z,99173.44
2024-04-16T02:56:58.650Z,99170.28
2024-04-16T03:00:02.112Z,99179.75
2024-04-16T03:03:04.771Z,99176.34
2024-04-16T03:06:07.397Z,99173.75
2024-04-16T03:09:09.848Z,99165.88
2024-04-16T03:12:12.302Z,99159.38
2024-04-16T03:15:14.824Z,99157.75
2024-04-16T03:18:17.321Z,99164.06
2024-04-16T03:21:21.296Z,99165.72
2024-04-16T03:24:25.094Z,99158.09
2024-04-16T03:27:27.558Z,99144.97
2024-04-16T03:30:30.133Z,99160.63
2024-04-16T03:33:33.736Z,99162.41
2024-04-16T03:36:36.219Z,99168.50
2024-04-16T03:39:38.682Z,99166.69
2024-04-16T03:42:41.348Z,99173.72
2024-04-16T03:45:43.805Z,99150.44
2024-04-16T03:48:46.277Z,99159.38
2024-04-16T03:51:48.738Z,99163.09
2024-04-16T03:54:52.058Z,99152.16
2024-04-16T03:57:54.508Z,99154.09
2024-04-16T04:01:08.647Z,99154.09
2024-04-16T04:04:11.340Z,99151.09
2024-04-16T04:07:13.828Z,99150.94
2024-04-16T04:10:18.378Z,99147.59
2024-04-16T04:13:21.114Z,99148.16
2024-04-16T04:16:23.610Z,99150.50
2024-04-16T04:19:26.085Z,99160.84
2024-04-16T04:22:28.641Z,99157.31
2024-04-16T04:25:31.220Z,99163.56
2024-04-16T04:28:33.792Z,99165.13
2024-04-16T04:31:36.568Z,99172.59
2024-04-16T04:34:39.244Z,99162.97
2024-04-16T04:37:41.746Z,99164.06
2024-04-16T04:40:45.177Z,99159.75
2024-04-16T04:43:47.771Z,99166.13
2024-04-16T04:46:50.228Z,99175.28
2024-04-16T04:49:52.715Z,99171.03
2024-04-16T04:52:55.186Z,99168.06
2024-04-16T04:55:57.623Z,99155.53
2024-04-16T04:59:01.185Z,99173.97
2024-04-16T05:02:03.837Z,99177.03
2024-04-16T05:05:06.892Z,99170.19
2024-04-16T05:08:09.363Z,99177.00
2024-04-16T05:11:11.928Z,99176.00
2024-04-16T05:14:14.474Z,99177.63
2024-04-16T05:17:16.900Z,99177.44
2024-04-16T05:20:19.333Z,99178.59
2024-04-16T05:23:21.751Z,99181.13
2024-04-16T05:26:24.445Z,99182.41
2024-04-16T05:29:26.872Z,99183.72
2024-04-16T05:32:29.333Z,99185.31
2024-04-16T05:35:31.812Z,99193.94
2024-04-16T05:38:34.815Z,99199.97
2024-04-16T05:41:37.292Z,99188.16
2024-04-16T05:44:40.298Z,99192.13
2024-04-16T05:47:42.850Z,99182.06
2024-04-16T05:50:45.361Z,99192.94
2024-04-16T05:53:47.861Z,99185.84
2024-04-16T05:56:50.327Z,99180.81
2024-04-16T05:59:52.900Z,99183.50
2024-04-16T06:02:55.354Z,99188.59
2024-04-16T06:05:58.864Z,99176.28
2024-04-16T06:09:01.529Z,99181.31
2024-04-16T06:12:04.344Z,99190.94
2024-04-16T06:15:06.839Z,99193.81
2024-04-16T06:18:10.878Z,99180.19
2024-04-16T06:21:15.830Z,99188.25
2024-04-16T06:24:18.267Z,99178.81
2024-04-16T06:27:20.804Z,99176.97
2024-04-16T06:30:25.260Z,99187.72
2024-04-16T06:33:29.789Z,99184.16
2024-04-16T06:36:32.270Z,99183.81
2024-04-16T06:39:34.704Z,99167.38
2024-04-16T06:42:38.143Z,99169.00
2024-04-16T06:45:40.634Z,99162.41
2024-04-16T06:48:43.140Z,99168.69
2024-04-16T06:51:46.856Z,99163.22
2024-04-16T06:54:51.223Z,99159.78
2024-04-16T06:57:54.341Z,99154.59
2024-04-16T07:00:57.463Z,99162.19
2024-04-16T07:04:01.110Z,99162.97
2024-04-16T07:07:05.946Z,99163.00
2024-04-16T07:10:10.521Z,99164.34
2024-04-16T07:13:14.720Z,99170.34
2024-04-16T07:16:18.282Z,99164.06
2024-04-16T07:19:20.752Z,99158.06
2024-04-16T07:22:23.328Z,99167.00
2024-04-16T07:25:25.853Z,99165.72
2024-04-16T07:28:28.451Z,99162.59
2024-04-16T07:31:38.600Z,99157.09
2024-04-16T07:34:44.921Z,99156.03
2024-04-16T07:37:47.448Z,99162.06
2024-04-16T07:40:56.293Z,99162.06
2024-04-16T07:43:58.747Z,99157.59
2024-04-16T07:47:01.601Z,99147.09
2024-04-16T07:50:04.435Z,99135.56
2024-04-16T07:53:06.905Z,99142.09
2024-04-16T07:56:09.381Z,99141.50
2024-04-16T07:59:11.839Z,99142.34
2024-04-16T08:02:14.399Z,99143.38
2024-04-16T08:05:17.078Z,99149.38
2024-04-16T08:08:26.314Z,99145.97
2024-04-16T08:11:35.089Z,99151.00
2024-04-16T08:14:37.636Z,99147.63
2024-04-16T08:17:40.325Z,99143.19
2024-04-16T08:20:42.928Z,99157.06
2024-04-16T08:23:45.369Z,99162.56
2024-04-16T08:26:47.814Z,99180.69
2024-04-16T08:29:53.523Z,99174.13
2024-04-16T08:32:56.327Z,99174.66
2024-04-16T08:35:58.963Z,99177.53
2024-04-16T08:39:01.746Z,99174.38
2024-04-16T08:42:04.617Z,99182.78
2024-04-16T08:45:07.442Z,99187.75
2024-04-16T08:48:09.985Z,99186.97
2024-04-16T08:51:13.103Z,99189.34
2024-04-16T08:54:15.555Z,99206.13
2024-04-16T08:57:18.306Z,99200.09
2024-04-16T09:00:21.463Z,99212.44
2024-04-16T09:03:26.338Z,99213.47
2024-04-16T09:06:28.846Z,99215.81
2024-04-16T09:09:31.319Z,99208.41
2024-04-16T09:12:34.441Z,99211.34
2024-04-16T09:15:39.194Z,99228.69
2024-04-16T09:18:41.640Z,99230.28
2024-04-16T09:21:44.089Z,99217.69
2024-04-16T09:24:46.550Z,99234.50
2024-04-16T09:40:48.101Z,99244.72
2024-04-16T09:43:50.562Z,99259.41
2024-04-16T09:46:55.468Z,99277.78
2024-04-16T09:50:11.245Z,99280.09
2024-04-16T09:53:21.361Z,99290.91
2024-04-16T09:56:23.812Z,99264.13
2024-04-16T09:59:26.292Z,99263.31
2024-04-16T10:02:30.298Z,99257.41
2024-04-16T10:05:33.991Z,99280.13
2024-04-16T10:08:36.471Z,99260.81
2024-04-16T10:11:39.078Z,99265.44
2024-04-16T10:14:41.647Z,99264.19
2024-04-16T10:17:51.911Z,99278.09
2024-04-16T10:21:00.184Z,99287.94
2024-04-16T10:24:02.854Z,99293.13
2024-04-16T10:27:09.402Z,99308.25
2024-04-16T10:30:14.574Z,99322.13
2024-04-16T10:33:17.185Z,99322.19
2024-04-16T10:36:19.658Z,99336.75
2024-04-16T10:39:33.523Z,99339.72
2024-04-16T10:42:39.327Z,99356.34
2024-04-16T10:45:45.744Z,99339.78
2024-04-16T10:48:48.281Z,99373.56
2024-04-16T10:51:51.801Z,99378.66
2024-04-16T10:54:57.392Z,99376.13
2024-04-16T10:57:59.974Z,99374.38
2024-04-16T11:01:06.174Z,99388.88
2024-04-16T11:04:12.344Z,99392.56
2024-04-16T11:07:14.876Z,99396.22
2024-04-16T11:10:17.371Z,99370.78
2024-04-16T11:13:20.129Z,99372.13
2024-04-16T11:16:23.592Z,99377.78
2024-04-16T11:19:26.133Z,99367.88
2024-04-16T11:22:28.681Z,99344.47
2024-04-16T11:25:32.369Z,99349.88
2024-04-16T11:28:34.962Z,99346.41
2024-04-16T11:31:37.718Z,99332.03
2024-04-16T11:34:43.353Z,99343.09
2024-04-16T11:37:46.140Z,99345.75
2024-04-16T11:40:56.740Z,99351.06
2024-04-16T11:44:04.040Z,99321.28
2024-04-16T11:47:10.122Z,99336.69
2024-04-16T11:50:14.135Z,99346.44
2024-04-16T11:53:16.587Z,99340.94
2024-04-16T11:56:19.056Z,99321.22
2024-04-16T11:59:21.527Z,99321.69
2024-04-16T12:02:24.122Z,99326.66
2024-04-16T12:05:26.691Z,99304.84
2024-04-16T12:08:29.235Z,99293.63
2024-04-16T12:11:31.759Z,99292.63
2024-04-16T12:14:34.229Z,99316.59
2024-04-16T12:17:36.949Z,99332.47
2024-04-16T12:20:39.551Z,99339.19
2024-04-16T12:23:42.268Z,99367.00
2024-04-16T12:26:44.739Z,99381.22
2024-04-16T12:29:48.112Z,99381.88
2024-04-16T12:33:01.006Z,99381.84
2024-04-16T12:36:10.557Z,99403.06
2024-04-16T12:39:13.960Z,99395.56
2024-04-16T12:42:16.402Z,99361.88
2024-04-16T12:45:19.115Z,99372.78
2024-04-16T12:48:21.775Z,99404.81
2024-04-16T12:51:24.455Z,99402.63
2024-04-16T12:54:27.140Z,99398.22
2024-04-16T12:57:30.298Z,99382.91
2024-04-16T13:00:33.198Z,99378.53
2024-04-16T13:03:35.714Z,99367.38
2024-04-16T13:06:38.248Z,99367.13
2024-04-16T13:09:40.689Z,99373.91
2024-04-16T13:12:43.154Z,99387.59
2024-04-16T13:15:45.600Z,99395.97
2024-04-16T13:18:48.213Z,99396.13
2024-04-16T13:21:51.056Z,99376.19
2024-04-16T13:24:53.688Z,99406.47
2024-04-16T13:27:56.155Z,99429.59
2024-04-16T13:31:01.126Z,99465.13
2024-04-16T13:34:03.559Z,99515.56
2024-04-16T13:37:06.016Z,99455.72
2024-04-16T13:40:11.871Z,99441.22
2024-04-16T13:43:18.785Z,99445.00
2024-04-16T13:46:21.333Z,99471.56
2024-04-16T13:49:23.909Z,99469.81
2024-04-16T13:52:26.945Z,99412.81
2024-04-16T13:55:30.066Z,99426.66
2024-04-16T13:58:32.641Z,99449.56
2024-04-16T14:01:35.165Z,99470.47
2024-04-16T14:04:37.693Z,99512.50
2024-04-16T14:07:40.317Z,99507.72
2024-04-16T14:10:42.924Z,99517.09
2024-04-16T14:13:45.589Z,99512.50
2024-04-16T14:16:48.238Z,99516.28
2024-04-16T14:19:51.585Z,99510.09
2024-04-16T14:22:55.331Z,99505.50
2024-04-16T14:25:58.081Z,99526.81
2024-04-16T14:29:00.533Z,99489.19
2024-04-16T14:32:02.989Z,99486.97
2024-04-16T14:35:05.886Z,99488.16
2024-04-16T14:38:08.474Z,99508.63
2024-04-16T14:41:10.945Z,99543.47
2024-04-16T14:44:13.394Z,99521.75
2024-04-16T14:47:15.999Z,99500.84
2024-04-16T14:50:19.032Z,99534.41
2024-04-16T14:53:21.619Z,99534.91
2024-04-16T14:56:24.273Z,99570.25
2024-04-16T14:59:26.717Z,99617.97
2024-04-16T15:02:29.321Z,99675.78
2024-04-16T15:05:31.768Z,99683.34
2024-04-16T15:08:34.224Z,99646.09
2024-04-16T15:11:36.708Z,99621.28
2024-04-16T15:14:39.148Z,99619.25
2024-04-16T15:17:41.723Z,99590.03
2024-04-16T15:20:46.046Z,99574.38
2024-04-16T15:23:49.348Z,99612.06
2024-04-16T15:26:51.818Z,99677.84
2024-04-16T15:29:54.388Z,99734.31
2024-04-16T15:33:05.743Z,99694.88
2024-04-16T15:36:08.810Z,99644.59
2024-04-16T15:39:11.403Z,99650.75
2024-04-16T15:42:13.885Z,99683.75
2024-04-16T15:45:16.545Z,99717.44
2024-04-16T15:48:20.340Z,99696.56
2024-04-16T15:51:26.098Z,99681.00
2024-04-16T15:54:28.611Z,99701.84
2024-04-16T15:57:33.237Z,99686.75
2024-04-16T16:00:44.964Z,99687.78
2024-04-16T16:03:47.531Z,99680.03
2024-04-16T16:06:49.997Z,99652.47
2024-04-16T16:09:52.445Z,99635.78
2024-04-16T16:12:56.518Z,99627.59
2024-04-16T16:16:00.466Z,99675.75
2024-04-16T16:19:02.988Z,99703.25
2024-04-16T16:22:05.428Z,99692.88
2024-04-16T16:25:08.423Z,99659.16
2024-04-16T16:28:10.900Z,99666.72
2024-04-16T16:31:13.910Z,99676.28
2024-04-16T16:34:16.603Z,99703.25
2024-04-16T16:37:19.118Z,99734.38
2024-04-16T16:40:21.626Z,99731.47
2024-04-16T16:43:24.536Z,99704.13
2024-04-16T16:46:27.811Z,99710.25
2024-04-16T16:49:30.292Z,99715.59
2024-04-16T16:52:34.343Z,99683.50
2024-04-16T16:55:36.983Z,99686.69
2024-04-16T16:58:39.484Z,99676.56
2024-04-16T17:01:41.983Z,99669.78
2024-04-16T17:04:44.536Z,99664.94
2024-04-16T17:07:47.107Z,99674.22
2024-04-16T17:10:49.778Z,99675.66
2024-04-16T17:13:52.424Z,99666.28
2024-04-16T17:16:55.044Z,99660.81
2024-04-16T17:19:57.592Z,99650.00
2024-04-16T17:23:00.113Z,99667.50
2024-04-16T17:26:02.662Z,99658.38
2024-04-16T17:29:05.162Z,99659.63
2024-04-16T17:32:07.950Z,99633.06
2024-04-16T17:35:10.441Z,99650.63
2024-04-16T17:38:12.899Z,99638.25
2024-04-16T17:41:15.351Z,99621.19
2024-04-16T17:44:18.078Z,99626.53
2024-04-16T17:47:20.593Z,99632.88
2024-04-16T17:50:23.066Z,99663.00
2024-04-16T17:53:25.706Z,99698.75
2024-04-16T17:56:29.363Z,99723.72
2024-04-16T17:59:32.628Z,99698.75
2024-04-16T18:02:35.931Z,99691.63
2024-04-16T18:05:38.430Z,99723.44
2024-04-16T18:08:40.978Z,99733.34
2024-04-16T18:11:43.555Z,99698.56
2024-04-16T18:14:46.056Z,99714.38
2024-04-16T18:17:48.522Z,99716.59
2024-04-16T18:20:55.703Z,99708.78
2024-04-16T18:23:58.929Z,99720.34
2024-04-16T18:27:01.592Z,99722.81
2024-04-16T18:30:04.450Z,99711.47
2024-04-16T18:33:07.195Z,99710.22
2024-04-16T18:36:09.853Z,99710.31
2024-04-16T18:39:12.324Z,99708.34
2024-04-16T18:42:18.153Z,99699.63
2024-04-16T18:45:20.628Z,99658.66
2024-04-16T18:48:23.273Z,99639.59
2024-04-16T18:51:25.825Z,99649.13
2024-04-16T18:54:28.285Z,99648.94
2024-04-16T18:57:30.797Z,99662.81
2024-04-16T19:00:33.387Z,99667.97
2024-04-16T19:03:35.904Z,99666.91
2024-04-16T19:06:39.730Z,99654.63
2024-04-16T19:09:42.432Z,99664.94
2024-04-16T19:12:44.907Z,99675.78
2024-04-16T19:16:00.273Z,99682.72
2024-04-16T19:19:04.466Z,99705.03
2024-04-16T19:22:06.969Z,99715.69
2024-04-16T19:25:09.420Z,99709.94
2024-04-16T19:28:11.848Z,99708.16
2024-04-16T19:31:14.333Z,99702.00
2024-04-16T19:34:18.454Z,99716.19
2024-04-16T19:37:20.987Z,99725.88
2024-04-16T19:40:23.459Z,99725.41
2024-04-16T19:43:25.993Z,99731.19
2024-04-16T19:46:28.496Z,99739.69
2024-04-16T19:49:30.973Z,99710.41
2024-04-16T19:52:33.619Z,99682.25
2024-04-16T19:55:36.199Z,99691.75
2024-04-16T19:58:38.991Z,99703.84
2024-04-16T20:01:41.562Z,99688.81
2024-04-16T20:04:46.550Z,99673.50
2024-04-16T20:07:50.223Z,99667.63
2024-04-16T20:10:52.770Z,99678.94
2024-04-16T20:13:56.823Z,99660.81
2024-04-16T20:16:59.839Z,99653.69
2024-04-16T20:20:02.283Z,99655.41
2024-04-16T20:23:04.923Z,99653.56
2024-04-16T20:26:09.448Z,99646.63
2024-04-16T20:29:11.972Z,99668.66
2024-04-16T20:32:14.472Z,99676.31
2024-04-16T20:35:18.553Z,99663.59
2024-04-16T20:38:21.141Z,99683.50
2024-04-16T20:41:24.644Z,99701.38
2024-04-16T20:44:27.105Z,99716.38
2024-04-16T20:47:29.564Z,99708.22
2024-04-16T20:50:32.032Z,99712.63
2024-04-16T20:53:34.646Z,99702.16
2024-04-16T20:56:37.099Z,99693.16
2024-04-16T20:59:41.675Z,99680.13
2024-04-16T21:02:45.351Z,99698.69
2024-04-16T21:05:47.799Z,99699.13
2024-04-16T21:08:50.248Z,99688.03
2024-04-16T21:11:52.694Z,99694.34
2024-04-16T21:14:55.175Z,99688.41
2024-04-16T21:17:57.748Z,99668.50
2024-04-16T21:21:00.840Z,99654.38
2024-04-16T21:24:03.696Z,99676.03
2024-04-16T21:27:07.626Z,99670.16
2024-04-16T21:30:10.570Z,99669.25
2024-04-16T21:33:13.169Z,99687.75
2024-04-16T21:36:15.700Z,99667.75
2024-04-16T21:39:18.139Z,99614.28
2024-04-16T21:42:20.616Z,99636.84
2024-04-16T21:45:23.135Z,99633.47
2024-04-16T21:48:25.621Z,99628.94
2024-04-16T21:51:28.129Z,99617.00
2024-04-16T21:54:30.634Z,99626.53
2024-04-16T21:57:33.063Z,99629.63
2024-04-16T22:00:36.994Z,99615.94
2024-04-16T22:03:39.632Z,99624.84
2024-04-16T22:06:42.293Z,99608.81
2024-04-16T22:09:47.726Z,99595.06
2024-04-16T22:12:50.170Z,99597.19
2024-04-16T22:15:59.612Z,99600.50
2024-04-16T22:19:02.077Z,99599.31
2024-04-16T22:22:04.681Z,99577.09
2024-04-16T22:25:07.196Z,99591.22
2024-04-16T22:28:10.837Z,99580.28
2024-04-16T22:31:14.442Z,99596.56
2024-04-16T22:34:16.853Z,99576.16
2024-04-16T22:37:19.333Z,99559.31
2024-04-16T22:40:21.798Z,99525.75
2024-04-16T22:43:24.333Z,99548.59
2024-04-16T22:46:26.860Z,99566.25
2024-04-16T22:49:29.375Z,99572.03
2024-04-16T22:52:31.908Z,99569.81
2024-04-16T22:55:34.417Z,99538.63
2024-04-16T22:58:36.903Z,99557.47
2024-04-16T23:01:39.384Z,99535.19
2024-04-16T23:04:41.928Z,99518.56
2024-04-16T23:07:44.441Z,99535.34
2024-04-16T23:10:47.088Z,99548.84
2024-04-16T23:13:49.688Z,99550.00
2024-04-16T23:16:52.247Z,99539.00
2024-04-16T23:19:54.864Z,99529.59
2024-04-16T23:22:57.447Z,99513.97
2024-04-16T23:26:00.130Z,99508.13
2024-04-16T23:29:02.645Z,99517.78
2024-04-16T23:32:05.616Z,99514.78
2024-04-16T23:35:08.087Z,99513.53
2024-04-16T23:38:10.658Z,99516.75
2024-04-16T23:41:13.108Z,99504.06
2024-04-16T23:44:15.567Z,99491.81
2024-04-16T23:47:17.992Z,99479.38
2024-04-16T23:50:20.435Z,99487.09
2024-04-16T23:53:23.349Z,99478.56
2024-04-16T23:56:25.784Z,99485.41
2024-04-16T23:59:28.440Z,99473.88
